首页
METAR-TAF:

METAR-TAF

机场 :

新山一國際機場

胡志明, 越南

纬度: 10-49N, 经度: 106-40E, 海拔: 19米

当前天气观测

该预报发布于42分钟前的22:00 UTC
风速5节,风向西转西南
温度 28°C
湿度 100%
气压 1007 hPa
能見度: 7000
少量云层高于2000英尺
散云层高于5000英尺

METAR: VVTS 282200Z 25005KT 7000 FEW020 SCT050 28/28 Q1007 NOSIG

时间: 05:42 (22:42 UTC)

预报

该预报发布于5小时和42分钟前的17:00 UTC
预报有效从28日的 18点(UTC)到 29日的 24点(UTC)
风速8节,风向西转西南
能见度10公里或以上
散云层高于1700英尺
散云层高于4000英尺
短暂存在
从 29日的 06点(UTC)到 29日的 11点(UTC)
能見度: 4000
散云层高于1500英尺
少量云层高于1700英尺, 积雨云.
多云层高于4000英尺
雷暴, 雨,

TAF: VVTS 281700Z 2818/2924 24008KT 9999 SCT017 SCT040 TEMPO 2906/2911 4000 TSRA SCT015 FEW017CB BKN040

超过4000个机场的气象观测和天气预报(METAR&TAF报告)。

可查询的气象台以黄色和红色小点在地图上表示。

将鼠标移到小点上方,可查看气象台名称。

然后点击查看天气观测和预报。

如需切换地图:点击带黑十字的绿色按钮放大地图;点击带横线的绿色按钮缩小地图;或者点击绿色箭头查看邻近地区的地图。


METAR-TAF: